Time;durP1;ratioP1;P1;durP2;ratioP2;P2;SDS_P1;SDS_P2;PMS_P1;PMS_P2;Temp;Humidity;BMP_temperature;BMP_pressure;BME280_temperature;BME280_humidity;BME280_pressure;Samples;Min_cycle;Max_cycle;Signal;HPM_P1;HPM_P2
2024/01/09 00:00:15;;;;;;;2.22;1.58;;;;;;;;;;5049725;28;20069;-69
2024/01/09 00:02:40;;;;;;;2.53;1.70;;;;;;;;;;5063359;28;20029;-68
2024/01/09 00:05:05;;;;;;;2.80;1.85;;;;;;;;;;5053495;28;20570;-69
2024/01/09 00:07:34;;;;;;;2.90;2.00;;;;;;;;;;5045708;28;20045;-69
2024/01/09 00:09:59;;;;;;;2.40;1.90;;;;;;;;;;5053734;28;20048;-69
2024/01/09 00:12:25;;;;;;;2.67;1.88;;;;;;;;;;5061663;28;20045;-69
2024/01/09 00:14:50;;;;;;;2.15;1.90;;;;;;;;;;5049728;28;20039;-69
2024/01/09 00:17:15;;;;;;;2.45;1.65;;;;;;;;;;5052896;28;20034;-68
2024/01/09 00:19:40;;;;;;;2.78;1.77;;;;;;;;;;5047370;28;20035;-69
2024/01/09 00:22:06;;;;;;;2.58;1.80;;;;;;;;;;5043852;28;20084;-69
2024/01/09 00:24:31;;;;;;;3.22;2.08;;;;;;;;;;5040908;28;20053;-69
2024/01/09 00:26:56;;;;;;;2.97;1.90;;;;;;;;;;5054365;28;20460;-70
2024/01/09 00:29:22;;;;;;;2.58;1.88;;;;;;;;;;5049680;28;20025;-68
2024/01/09 00:31:47;;;;;;;2.40;1.85;;;;;;;;;;5050796;28;20097;-68
2024/01/09 00:34:12;;;;;;;2.92;2.00;;;;;;;;;;5047193;28;20032;-68
2024/01/09 00:36:42;;;;;;;3.47;2.20;;;;;;;;;;5035559;28;20048;-68
2024/01/09 00:39:07;;;;;;;2.75;1.90;;;;;;;;;;5059822;28;20032;-69
2024/01/09 00:41:33;;;;;;;3.53;1.92;;;;;;;;;;5060222;28;20120;-69
2024/01/09 00:43:58;;;;;;;2.55;1.90;;;;;;;;;;5048269;28;20030;-68
2024/01/09 00:46:25;;;;;;;2.20;1.90;;;;;;;;;;5042643;28;20121;-68
2024/01/09 00:48:51;;;;;;;2.03;1.60;;;;;;;;;;5049506;28;20039;-68
2024/01/09 00:51:16;;;;;;;2.88;2.00;;;;;;;;;;5054927;28;20033;-68
2024/01/09 00:53:41;;;;;;;2.63;1.50;;;;;;;;;;5058445;28;20086;-68
2024/01/09 00:56:07;;;;;;;2.88;2.08;;;;;;;;;;5038618;28;20038;-68
2024/01/09 00:58:32;;;;;;;2.42;1.70;;;;;;;;;;5057309;28;20029;-68
2024/01/09 01:00:57;;;;;;;3.33;1.98;;;;;;;;;;5060056;28;20445;-68
2024/01/09 01:03:23;;;;;;;2.33;1.73;;;;;;;;;;5063185;28;20056;-69
2024/01/09 01:05:48;;;;;;;3.03;1.85;;;;;;;;;;5054087;28;20377;-69
2024/01/09 01:08:13;;;;;;;2.22;1.52;;;;;;;;;;5057469;28;20041;-68
2024/01/09 01:10:39;;;;;;;2.08;1.70;;;;;;;;;;5066516;28;20048;-68
2024/01/09 01:13:04;;;;;;;2.60;1.90;;;;;;;;;;5041637;28;20120;-68
2024/01/09 01:15:29;;;;;;;2.15;1.83;;;;;;;;;;5043834;28;20487;-69
2024/01/09 01:17:55;;;;;;;2.30;2.05;;;;;;;;;;5046056;28;20424;-68
2024/01/09 01:20:20;;;;;;;2.40;1.80;;;;;;;;;;5051071;28;20037;-68
2024/01/09 01:22:45;;;;;;;2.67;1.98;;;;;;;;;;5045963;28;20045;-69
2024/01/09 01:25:11;;;;;;;2.25;1.88;;;;;;;;;;5064075;28;20036;-68
2024/01/09 01:27:36;;;;;;;2.50;1.65;;;;;;;;;;5049750;28;20029;-69
2024/01/09 01:30:01;;;;;;;2.15;1.85;;;;;;;;;;5052376;28;20079;-69
2024/01/09 01:32:27;;;;;;;1.88;1.63;;;;;;;;;;5034607;28;20025;-68
2024/01/09 01:34:52;;;;;;;2.60;2.00;;;;;;;;;;5054867;28;20032;-69
2024/01/09 01:37:17;;;;;;;2.53;1.90;;;;;;;;;;5052114;28;20124;-68
2024/01/09 01:39:43;;;;;;;2.28;1.98;;;;;;;;;;5056122;28;20028;-68
2024/01/09 01:42:08;;;;;;;2.40;2.00;;;;;;;;;;5056548;28;20442;-68
2024/01/09 01:44:33;;;;;;;3.17;2.10;;;;;;;;;;5056848;28;20048;-70
2024/01/09 01:46:58;;;;;;;2.80;1.90;;;;;;;;;;5051365;28;20021;-68
2024/01/09 01:49:24;;;;;;;2.25;2.00;;;;;;;;;;5049818;28;20072;-69
2024/01/09 01:51:49;;;;;;;3.20;2.00;;;;;;;;;;5049911;28;20111;-69
2024/01/09 01:54:15;;;;;;;2.60;1.90;;;;;;;;;;5060385;28;20047;-68
2024/01/09 01:56:40;;;;;;;2.30;1.85;;;;;;;;;;5047048;28;20104;-68
2024/01/09 01:59:06;;;;;;;2.22;1.85;;;;;;;;;;5056848;28;20128;-68
2024/01/09 02:01:31;;;;;;;3.15;2.05;;;;;;;;;;5080758;28;20024;-68
2024/01/09 02:03:56;;;;;;;2.60;2.00;;;;;;;;;;5058957;28;20388;-68
2024/01/09 02:06:34;;;;;;;2.63;1.92;;;;;;;;;;5051441;28;20033;-69
2024/01/09 02:08:59;;;;;;;2.28;1.90;;;;;;;;;;5050743;28;20654;-68
2024/01/09 02:11:25;;;;;;;2.78;2.30;;;;;;;;;;5063064;28;20041;-69
2024/01/09 02:13:50;;;;;;;2.47;1.85;;;;;;;;;;5058838;28;20025;-68
2024/01/09 02:16:15;;;;;;;2.17;1.90;;;;;;;;;;5039987;28;20727;-69
2024/01/09 02:18:41;;;;;;;2.53;1.70;;;;;;;;;;5044199;28;20079;-68
2024/01/09 02:21:06;;;;;;;2.22;1.98;;;;;;;;;;5060398;28;20407;-68
2024/01/09 02:23:31;;;;;;;2.10;1.80;;;;;;;;;;5054683;28;20041;-68
2024/01/09 02:25:58;;;;;;;2.53;2.10;;;;;;;;;;5053614;28;20106;-69
2024/01/09 02:28:26;;;;;;;2.80;1.98;;;;;;;;;;5050112;28;20047;-68
2024/01/09 02:30:55;;;;;;;2.25;1.75;;;;;;;;;;5057241;28;20085;-68
2024/01/09 02:33:20;;;;;;;2.72;1.90;;;;;;;;;;5049488;28;20516;-68
2024/01/09 02:35:45;;;;;;;3.20;1.95;;;;;;;;;;5052902;28;20035;-68
2024/01/09 02:38:11;;;;;;;2.63;1.98;;;;;;;;;;5065640;28;20044;-68
2024/01/09 02:40:36;;;;;;;2.40;2.00;;;;;;;;;;5044507;28;20025;-69
2024/01/09 02:43:01;;;;;;;2.63;2.03;;;;;;;;;;5055894;28;20120;-68
2024/01/09 02:45:27;;;;;;;3.22;2.03;;;;;;;;;;5053079;28;20075;-69
2024/01/09 02:47:52;;;;;;;2.30;1.70;;;;;;;;;;5051493;28;20075;-69
2024/01/09 02:50:20;;;;;;;2.40;1.80;;;;;;;;;;5052368;28;20041;-68
2024/01/09 02:52:45;;;;;;;2.50;1.88;;;;;;;;;;5064953;28;20037;-68
2024/01/09 02:55:10;;;;;;;2.28;2.08;;;;;;;;;;5055618;28;20039;-68
2024/01/09 02:57:40;;;;;;;2.55;2.10;;;;;;;;;;5053293;28;20028;-68
2024/01/09 03:00:07;;;;;;;2.80;2.00;;;;;;;;;;5059191;28;20037;-69
2024/01/09 03:02:32;;;;;;;2.17;1.80;;;;;;;;;;5043767;28;20040;-70
2024/01/09 03:04:58;;;;;;;2.90;2.20;;;;;;;;;;5054167;28;20031;-69
2024/01/09 03:07:23;;;;;;;2.58;2.10;;;;;;;;;;5048390;28;20041;-69
2024/01/09 03:09:48;;;;;;;2.53;1.70;;;;;;;;;;5060830;28;20534;-69
2024/01/09 03:12:14;;;;;;;2.70;2.00;;;;;;;;;;5051631;28;20048;-69
2024/01/09 03:14:41;;;;;;;2.70;2.03;;;;;;;;;;5061589;28;20106;-70
2024/01/09 03:17:06;;;;;;;2.75;2.10;;;;;;;;;;5060347;28;20504;-70
2024/01/09 03:19:32;;;;;;;2.10;1.90;;;;;;;;;;5063686;28;20039;-70
2024/01/09 03:21:57;;;;;;;2.88;1.90;;;;;;;;;;5057056;28;20041;-70
2024/01/09 03:24:22;;;;;;;2.97;1.92;;;;;;;;;;5055369;28;20031;-70
2024/01/09 03:26:48;;;;;;;2.63;2.08;;;;;;;;;;5044137;28;20132;-70
2024/01/09 03:29:15;;;;;;;2.30;1.85;;;;;;;;;;5046676;28;20484;-69
2024/01/09 03:31:41;;;;;;;2.67;1.83;;;;;;;;;;5056211;28;20040;-70
2024/01/09 03:34:06;;;;;;;2.95;2.13;;;;;;;;;;5060785;28;20094;-69
2024/01/09 03:36:31;;;;;;;2.70;1.92;;;;;;;;;;5055847;28;20090;-70
2024/01/09 03:38:57;;;;;;;2.60;2.10;;;;;;;;;;5045379;28;20143;-71
2024/01/09 03:41:22;;;;;;;2.88;2.22;;;;;;;;;;5047154;28;20424;-70
2024/01/09 03:43:47;;;;;;;3.15;1.83;;;;;;;;;;5040703;28;20508;-70
2024/01/09 03:46:13;;;;;;;2.75;2.10;;;;;;;;;;5038722;28;20104;-70
2024/01/09 03:48:38;;;;;;;3.05;2.10;;;;;;;;;;5037002;28;20029;-70
2024/01/09 03:51:04;;;;;;;2.88;2.03;;;;;;;;;;5037205;28;20092;-70
2024/01/09 03:53:29;;;;;;;2.20;1.75;;;;;;;;;;5041376;28;20136;-69
2024/01/09 03:55:54;;;;;;;3.50;2.10;;;;;;;;;;5060389;28;20041;-70
2024/01/09 03:58:20;;;;;;;3.42;2.03;;;;;;;;;;5051253;28;20041;-68
2024/01/09 04:00:45;;;;;;;2.17;1.70;;;;;;;;;;5055020;28;20043;-68
2024/01/09 04:03:10;;;;;;;2.88;2.00;;;;;;;;;;5041237;28;20791;-69
2024/01/09 04:05:36;;;;;;;2.63;1.90;;;;;;;;;;5043955;28;20037;-69
2024/01/09 04:08:02;;;;;;;2.95;1.90;;;;;;;;;;5042435;28;20032;-69
2024/01/09 04:10:27;;;;;;;2.63;1.90;;;;;;;;;;5050146;28;20190;-69
2024/01/09 04:12:53;;;;;;;2.25;1.80;;;;;;;;;;5039790;28;20444;-69
2024/01/09 04:15:18;;;;;;;2.53;1.83;;;;;;;;;;5043452;28;20556;-69
2024/01/09 04:17:43;;;;;;;2.35;1.77;;;;;;;;;;5043988;28;20456;-70
2024/01/09 04:20:12;;;;;;;2.30;1.95;;;;;;;;;;5041183;28;20420;-69
2024/01/09 04:22:37;;;;;;;2.35;1.90;;;;;;;;;;5044133;28;20044;-69
2024/01/09 04:25:03;;;;;;;2.78;2.10;;;;;;;;;;5036908;28;20044;-69
2024/01/09 04:27:28;;;;;;;2.20;1.63;;;;;;;;;;5040538;28;20112;-69
2024/01/09 04:29:54;;;;;;;2.50;1.90;;;;;;;;;;5048156;28;20534;-69
2024/01/09 04:32:19;;;;;;;2.55;1.85;;;;;;;;;;5050002;28;20045;-68
2024/01/09 04:34:44;;;;;;;1.90;1.60;;;;;;;;;;5063886;28;20445;-68
2024/01/09 04:37:09;;;;;;;2.40;1.90;;;;;;;;;;5046015;28;20056;-69
2024/01/09 04:39:35;;;;;;;2.72;1.80;;;;;;;;;;5038585;28;20044;-70
2024/01/09 04:42:00;;;;;;;2.90;1.77;;;;;;;;;;5044571;28;20367;-70
2024/01/09 04:44:27;;;;;;;2.22;1.58;;;;;;;;;;5047522;28;20036;-69
2024/01/09 04:46:53;;;;;;;2.65;2.10;;;;;;;;;;5040792;28;20029;-69
2024/01/09 04:49:18;;;;;;;2.90;1.80;;;;;;;;;;5045205;28;20106;-68
2024/01/09 04:51:43;;;;;;;3.28;2.50;;;;;;;;;;5044816;28;20026;-68
2024/01/09 04:54:11;;;;;;;4.65;1.80;;;;;;;;;;5048710;28;20033;-69
2024/01/09 04:56:36;;;;;;;2.42;1.70;;;;;;;;;;5024652;28;20029;-70
2024/01/09 04:59:01;;;;;;;2.53;1.80;;;;;;;;;;5053958;28;20025;-69
2024/01/09 05:01:28;;;;;;;2.33;1.67;;;;;;;;;;5047852;28;20501;-69
2024/01/09 05:03:54;;;;;;;2.10;1.70;;;;;;;;;;5049061;28;20512;-69
2024/01/09 05:06:20;;;;;;;3.78;1.70;;;;;;;;;;5047666;28;20036;-69
2024/01/09 05:08:45;;;;;;;2.42;1.90;;;;;;;;;;5077975;28;20475;-70
2024/01/09 05:11:11;;;;;;;2.63;1.77;;;;;;;;;;5046494;28;20394;-70
2024/01/09 05:13:36;;;;;;;2.10;1.63;;;;;;;;;;5043995;28;20029;-70
2024/01/09 05:16:02;;;;;;;2.38;1.83;;;;;;;;;;5063121;28;21011;-70
2024/01/09 05:18:27;;;;;;;2.00;1.70;;;;;;;;;;5045528;28;20032;-70
2024/01/09 05:20:52;;;;;;;2.13;1.60;;;;;;;;;;5045888;28;20040;-69
2024/01/09 05:23:18;;;;;;;2.42;1.70;;;;;;;;;;5048583;28;20713;-70
2024/01/09 05:25:43;;;;;;;2.13;1.60;;;;;;;;;;5046399;28;20085;-69
2024/01/09 05:28:09;;;;;;;2.40;1.85;;;;;;;;;;5049403;28;20123;-70
2024/01/09 05:30:34;;;;;;;2.70;1.67;;;;;;;;;;5068492;28;20060;-70
2024/01/09 05:33:00;;;;;;;2.90;1.75;;;;;;;;;;5043596;28;20029;-70
2024/01/09 05:35:25;;;;;;;2.50;1.90;;;;;;;;;;5045752;28;20029;-70
2024/01/09 05:37:50;;;;;;;2.47;1.88;;;;;;;;;;5046185;28;20036;-69
2024/01/09 05:40:16;;;;;;;2.50;1.83;;;;;;;;;;5061123;28;20059;-68
2024/01/09 05:42:43;;;;;;;2.70;1.88;;;;;;;;;;5047704;28;20112;-69
2024/01/09 05:45:08;;;;;;;2.50;1.65;;;;;;;;;;5042771;28;20089;-69
2024/01/09 05:47:34;;;;;;;2.15;1.58;;;;;;;;;;5049283;28;20814;-70
2024/01/09 05:49:59;;;;;;;2.63;1.80;;;;;;;;;;5048814;28;20086;-69
2024/01/09 05:52:24;;;;;;;2.10;1.67;;;;;;;;;;5051376;28;20055;-69
2024/01/09 05:54:50;;;;;;;2.15;1.42;;;;;;;;;;5055367;28;20029;-69
2024/01/09 05:57:15;;;;;;;2.05;1.55;;;;;;;;;;5064043;28;20052;-71
2024/01/09 05:59:43;;;;;;;2.28;1.90;;;;;;;;;;5051263;28;20175;-69
2024/01/09 06:02:10;;;;;;;2.10;1.50;;;;;;;;;;5046738;28;20045;-68
2024/01/09 06:04:35;;;;;;;2.22;1.70;;;;;;;;;;5044724;28;20056;-71
2024/01/09 06:07:00;;;;;;;2.88;1.30;;;;;;;;;;5060491;28;20164;-71
2024/01/09 06:09:26;;;;;;;2.05;1.45;;;;;;;;;;5062512;28;20037;-71
2024/01/09 06:11:51;;;;;;;3.13;1.52;;;;;;;;;;5046027;28;20116;-70
2024/01/09 06:14:17;;;;;;;2.05;1.50;;;;;;;;;;5059771;28;20037;-69
2024/01/09 06:16:42;;;;;;;2.10;1.60;;;;;;;;;;5048765;28;20464;-73
2024/01/09 06:19:07;;;;;;;2.00;1.50;;;;;;;;;;5044532;28;20090;-71
2024/01/09 06:21:33;;;;;;;2.67;1.70;;;;;;;;;;5064647;28;20034;-70
2024/01/09 06:23:58;;;;;;;3.63;1.50;;;;;;;;;;5057489;28;20045;-70
2024/01/09 06:26:24;;;;;;;2.45;1.50;;;;;;;;;;5059844;28;20799;-70
2024/01/09 06:28:49;;;;;;;2.17;1.60;;;;;;;;;;5063869;28;20033;-71
2024/01/09 06:31:15;;;;;;;1.85;1.23;;;;;;;;;;5061030;28;20056;-70
2024/01/09 06:33:40;;;;;;;2.03;1.40;;;;;;;;;;5061669;28;20454;-71
2024/01/09 06:36:06;;;;;;;1.75;1.50;;;;;;;;;;5041987;28;20522;-70
2024/01/09 06:38:31;;;;;;;2.20;1.35;;;;;;;;;;5046021;28;20573;-69
2024/01/09 06:40:58;;;;;;;2.50;1.40;;;;;;;;;;5047664;28;20043;-69
2024/01/09 06:43:23;;;;;;;1.58;1.20;;;;;;;;;;5058451;28;20049;-69
2024/01/09 06:45:48;;;;;;;2.95;1.42;;;;;;;;;;5042295;28;20398;-69
2024/01/09 06:48:18;;;;;;;2.33;1.40;;;;;;;;;;5045225;28;20041;-69
2024/01/09 06:50:43;;;;;;;2.15;1.30;;;;;;;;;;5048387;28;20036;-69
2024/01/09 06:53:08;;;;;;;2.70;1.45;;;;;;;;;;5047142;28;20041;-69
2024/01/09 06:55:36;;;;;;;2.75;1.40;;;;;;;;;;5061565;28;20055;-69
2024/01/09 06:58:04;;;;;;;4.22;1.63;;;;;;;;;;5068106;28;20421;-68
2024/01/09 07:00:30;;;;;;;3.83;1.38;;;;;;;;;;5043691;28;20111;-70
2024/01/09 07:02:55;;;;;;;1.92;1.40;;;;;;;;;;5040941;28;20033;-68
2024/01/09 07:05:27;;;;;;;2.03;1.33;;;;;;;;;;5056393;28;20025;-72
2024/01/09 07:07:53;;;;;;;2.60;1.38;;;;;;;;;;5058443;28;20458;-70
2024/01/09 07:10:19;;;;;;;2.40;1.52;;;;;;;;;;5044627;28;20476;-70
2024/01/09 07:12:44;;;;;;;2.88;1.15;;;;;;;;;;5039117;28;20162;-70
2024/01/09 07:15:14;;;;;;;1.70;1.20;;;;;;;;;;5047951;28;20562;-70
2024/01/09 07:17:39;;;;;;;2.10;1.40;;;;;;;;;;5044924;28;20162;-69
2024/01/09 07:20:05;;;;;;;2.60;1.58;;;;;;;;;;5060195;28;20073;-70
2024/01/09 07:22:30;;;;;;;1.88;1.27;;;;;;;;;;5046469;28;20048;-71
2024/01/09 07:24:56;;;;;;;2.28;1.30;;;;;;;;;;5055082;28;21037;-70
2024/01/09 07:27:21;;;;;;;2.45;1.20;;;;;;;;;;5046838;28;20041;-68
2024/01/09 07:29:47;;;;;;;2.83;1.48;;;;;;;;;;5066198;28;20045;-69
2024/01/09 07:32:13;;;;;;;2.22;1.20;;;;;;;;;;5047929;28;20040;-69
2024/01/09 07:34:38;;;;;;;1.45;1.00;;;;;;;;;;5063273;28;20484;-69
2024/01/09 07:37:04;;;;;;;2.75;1.30;;;;;;;;;;5055558;28;20038;-70
2024/01/09 07:39:29;;;;;;;3.00;1.50;;;;;;;;;;5047185;28;20045;-69
2024/01/09 07:41:54;;;;;;;1.65;1.10;;;;;;;;;;5045113;28;20052;-69
2024/01/09 07:44:21;;;;;;;2.53;1.15;;;;;;;;;;5045485;28;20025;-69
2024/01/09 07:46:47;;;;;;;2.63;1.42;;;;;;;;;;5061130;28;20045;-70
2024/01/09 07:49:13;;;;;;;2.42;1.23;;;;;;;;;;5066659;28;20040;-70
2024/01/09 07:51:42;;;;;;;4.72;1.30;;;;;;;;;;5067634;28;20024;-71
2024/01/09 07:54:07;;;;;;;3.47;1.20;;;;;;;;;;5048577;28;20501;-69
2024/01/09 07:56:32;;;;;;;2.63;1.50;;;;;;;;;;5059258;28;20036;-69
2024/01/09 07:58:58;;;;;;;3.20;1.40;;;;;;;;;;5045978;28;20056;-70
2024/01/09 08:01:24;;;;;;;3.08;1.40;;;;;;;;;;5048276;28;20036;-70
2024/01/09 08:03:49;;;;;;;2.65;1.40;;;;;;;;;;5042544;28;20056;-70
2024/01/09 08:06:15;;;;;;;2.15;1.30;;;;;;;;;;5049693;28;20116;-70
2024/01/09 08:08:42;;;;;;;3.47;1.30;;;;;;;;;;5038798;28;20041;-70
2024/01/09 08:11:07;;;;;;;2.85;1.35;;;;;;;;;;5039810;28;20329;-69
2024/01/09 08:13:33;;;;;;;2.78;1.33;;;;;;;;;;5041802;28;20621;-70
2024/01/09 08:15:59;;;;;;;3.03;1.00;;;;;;;;;;5043003;28;20041;-70
2024/01/09 08:18:24;;;;;;;2.28;1.05;;;;;;;;;;5042604;28;20496;-70
2024/01/09 08:20:49;;;;;;;2.30;1.30;;;;;;;;;;5054966;28;20087;-69
2024/01/09 08:23:15;;;;;;;3.55;1.27;;;;;;;;;;5040430;28;20045;-70
2024/01/09 08:25:40;;;;;;;2.30;1.42;;;;;;;;;;5041397;28;20090;-70
2024/01/09 08:28:06;;;;;;;2.30;1.00;;;;;;;;;;5048923;28;20045;-69
2024/01/09 08:30:31;;;;;;;2.65;1.42;;;;;;;;;;5039452;28;20041;-69
2024/01/09 08:32:56;;;;;;;2.45;1.40;;;;;;;;;;5045366;28;20032;-70
2024/01/09 08:35:22;;;;;;;3.17;1.80;;;;;;;;;;5043546;28;20115;-70
2024/01/09 08:37:47;;;;;;;2.50;1.25;;;;;;;;;;5043895;28;20033;-70
2024/01/09 08:40:13;;;;;;;2.95;1.30;;;;;;;;;;5043064;28;20094;-70
2024/01/09 08:42:39;;;;;;;2.63;1.25;;;;;;;;;;5047093;28;20106;-69
2024/01/09 08:45:04;;;;;;;1.80;1.17;;;;;;;;;;5047231;28;20124;-69
2024/01/09 08:47:30;;;;;;;2.97;1.20;;;;;;;;;;5048854;28;20045;-73
2024/01/09 08:49:55;;;;;;;3.58;1.30;;;;;;;;;;5067356;28;20044;-69
2024/01/09 08:52:25;;;;;;;2.40;1.40;;;;;;;;;;5048427;28;20020;-68
2024/01/09 08:54:53;;;;;;;2.22;1.08;;;;;;;;;;5053334;28;20919;-67
2024/01/09 08:57:19;;;;;;;3.10;1.27;;;;;;;;;;5058432;28;20037;-70
2024/01/09 08:59:45;;;;;;;3.28;1.45;;;;;;;;;;5058380;28;20156;-70
2024/01/09 09:02:18;;;;;;;2.50;1.38;;;;;;;;;;5044914;28;20044;-70
2024/01/09 09:04:44;;;;;;;3.53;1.42;;;;;;;;;;5057651;28;20037;-70
2024/01/09 09:07:09;;;;;;;2.72;1.25;;;;;;;;;;5050249;28;20032;-70
2024/01/09 09:09:35;;;;;;;2.40;1.20;;;;;;;;;;5063632;28;20048;-70
2024/01/09 09:12:02;;;;;;;2.25;1.25;;;;;;;;;;5050895;28;20029;-70
2024/01/09 09:14:27;;;;;;;2.20;1.17;;;;;;;;;;5047426;28;20090;-69
2024/01/09 09:16:53;;;;;;;2.83;1.42;;;;;;;;;;5047594;28;20420;-69
2024/01/09 09:19:21;;;;;;;2.72;1.13;;;;;;;;;;5046739;28;20033;-69
2024/01/09 09:21:46;;;;;;;2.42;1.10;;;;;;;;;;5048589;28;20041;-70
2024/01/09 09:24:12;;;;;;;2.85;1.20;;;;;;;;;;5066425;28;20092;-70
2024/01/09 09:26:37;;;;;;;2.47;1.27;;;;;;;;;;5051624;28;20036;-70
2024/01/09 09:29:03;;;;;;;2.80;1.60;;;;;;;;;;5060170;28;20036;-69
2024/01/09 09:31:29;;;;;;;2.55;1.35;;;;;;;;;;5060364;28;20276;-70
2024/01/09 09:33:57;;;;;;;2.50;1.25;;;;;;;;;;5056711;28;20076;-71
2024/01/09 09:36:22;;;;;;;2.58;1.30;;;;;;;;;;5055692;28;20557;-70
2024/01/09 09:38:47;;;;;;;3.40;1.30;;;;;;;;;;5053847;28;20045;-70
2024/01/09 09:41:16;;;;;;;2.72;1.27;;;;;;;;;;5063657;28;20048;-70
2024/01/09 09:43:47;;;;;;;3.30;1.55;;;;;;;;;;5058145;28;20672;-71
2024/01/09 09:46:12;;;;;;;2.47;1.17;;;;;;;;;;5057995;28;20128;-70
2024/01/09 09:48:37;;;;;;;2.60;1.33;;;;;;;;;;5061835;28;20171;-70
2024/01/09 09:51:03;;;;;;;2.10;1.20;;;;;;;;;;5053113;28;20026;-70
2024/01/09 09:53:30;;;;;;;3.15;1.60;;;;;;;;;;5053412;28;20119;-69
2024/01/09 09:55:55;;;;;;;2.95;1.48;;;;;;;;;;5041783;28;20037;-69
2024/01/09 09:58:21;;;;;;;2.83;1.23;;;;;;;;;;5059855;28;20201;-68
2024/01/09 10:00:47;;;;;;;3.60;1.20;;;;;;;;;;5071512;28;20036;-70
2024/01/09 10:03:13;;;;;;;2.10;1.20;;;;;;;;;;5069327;28;20104;-68
2024/01/09 10:05:39;;;;;;;3.03;1.40;;;;;;;;;;5078420;28;20076;-69
2024/01/09 10:08:06;;;;;;;1.95;1.42;;;;;;;;;;5069177;28;20044;-70
2024/01/09 10:10:31;;;;;;;2.92;1.42;;;;;;;;;;5056017;28;20087;-70
2024/01/09 10:12:57;;;;;;;1.92;1.17;;;;;;;;;;5061597;28;20025;-69
2024/01/09 10:15:22;;;;;;;2.75;1.40;;;;;;;;;;5040245;28;20123;-70
2024/01/09 10:20:24;;;;;;;2.58;1.35;;;;;;;;;;4721205;22;20139;-53
2024/01/09 10:22:49;;;;;;;2.85;1.50;;;;;;;;;;5006427;28;20148;-55
2024/01/09 10:25:17;;;;;;;2.03;1.17;;;;;;;;;;5059017;22;20047;-55
2024/01/09 10:27:43;;;;;;;2.20;1.33;;;;;;;;;;5049546;28;20055;-54
2024/01/09 10:30:08;;;;;;;2.33;1.27;;;;;;;;;;5044080;28;20593;-54
2024/01/09 10:32:35;;;;;;;2.22;1.30;;;;;;;;;;5042198;28;20135;-55
2024/01/09 10:35:03;;;;;;;3.08;1.10;;;;;;;;;;5042176;28;20094;-54
2024/01/09 10:37:28;;;;;;;1.90;1.20;;;;;;;;;;5045008;28;20036;-55
2024/01/09 10:39:57;;;;;;;2.10;1.00;;;;;;;;;;5038628;28;20014;-55
2024/01/09 10:42:23;;;;;;;3.08;1.45;;;;;;;;;;5053594;22;20477;-71
2024/01/09 10:44:49;;;;;;;2.47;1.38;;;;;;;;;;5033551;28;20101;-73
2024/01/09 10:47:14;;;;;;;2.70;1.20;;;;;;;;;;5034507;28;20033;-72
2024/01/09 10:49:43;;;;;;;2.95;1.27;;;;;;;;;;5032019;28;20038;-72
2024/01/09 10:52:10;;;;;;;2.50;1.20;;;;;;;;;;5030921;28;20044;-72
2024/01/09 10:54:35;;;;;;;2.83;1.38;;;;;;;;;;5018014;28;20055;-72
2024/01/09 10:57:01;;;;;;;2.53;0.88;;;;;;;;;;5032502;28;20528;-74
2024/01/09 11:02:03;;;;;;;6.18;1.50;;;;;;;;;;5022553;22;20432;-69
2024/01/09 11:04:28;;;;;;;1.75;1.27;;;;;;;;;;5006538;28;20045;-68
2024/01/09 11:06:53;;;;;;;2.90;1.30;;;;;;;;;;4981932;28;20026;-69
2024/01/09 11:09:19;;;;;;;4.43;1.17;;;;;;;;;;4993348;28;20038;-69
2024/01/09 11:11:44;;;;;;;3.33;1.23;;;;;;;;;;4972778;28;20060;-70
2024/01/09 11:14:09;;;;;;;1.98;0.95;;;;;;;;;;4987076;28;20041;-70
2024/01/09 11:16:36;;;;;;;1.75;1.05;;;;;;;;;;4984936;28;20393;-70
2024/01/09 11:19:02;;;;;;;3.13;1.20;;;;;;;;;;4982620;28;20038;-72
2024/01/09 11:21:28;;;;;;;3.25;1.27;;;;;;;;;;4977044;28;20061;-72
2024/01/09 11:23:57;;;;;;;3.13;1.20;;;;;;;;;;4982076;28;20038;-73
2024/01/09 11:26:23;;;;;;;4.65;1.40;;;;;;;;;;4996299;28;20022;-73
2024/01/09 11:31:24;;;;;;;2.35;1.05;;;;;;;;;;1897453;23;20583;-72
2024/01/09 11:33:51;;;;;;;1.98;1.17;;;;;;;;;;4999492;28;20043;-76
2024/01/09 11:38:54;;;;;;;2.25;1.08;;;;;;;;;;1030201;23;20359;-73
2024/01/09 11:41:23;;;;;;;3.10;1.35;;;;;;;;;;4997491;28;20045;-73
2024/01/09 11:44:10;;;;;;;2.27;1.00;;;;;;;;;;5015374;28;20044;-74
2024/01/09 11:46:38;;;;;;;3.15;1.20;;;;;;;;;;4992911;28;20882;-72
2024/01/09 11:49:10;;;;;;;2.80;1.23;;;;;;;;;;4996808;28;20034;-73
2024/01/09 11:51:50;;;;;;;3.85;1.10;;;;;;;;;;4980569;28;20037;-77
2024/01/09 11:54:15;;;;;;;2.08;1.08;;;;;;;;;;5021891;28;20144;-76
2024/01/09 11:56:43;;;;;;;2.10;0.85;;;;;;;;;;5006944;28;20072;-72
2024/01/09 12:18:45;;;;;;;3.28;1.33;;;;;;;;;;5024403;23;20072;-76
2024/01/09 12:21:10;;;;;;;2.25;1.10;;;;;;;;;;4983383;28;20153;-77
2024/01/09 12:23:36;;;;;;;3.33;1.38;;;;;;;;;;4980901;28;20041;-76
2024/01/09 12:26:01;;;;;;;1.73;1.05;;;;;;;;;;4995863;28;20125;-76
2024/01/09 12:28:26;;;;;;;2.05;1.15;;;;;;;;;;4979427;28;20063;-75
2024/01/09 12:30:52;;;;;;;1.65;1.08;;;;;;;;;;5002307;28;20049;-74
2024/01/09 12:33:17;;;;;;;2.17;1.30;;;;;;;;;;5001593;28;20077;-76
2024/01/09 12:35:44;;;;;;;2.83;1.38;;;;;;;;;;4979740;28;20567;-77
2024/01/09 12:38:10;;;;;;;2.00;1.10;;;;;;;;;;4978386;28;20065;-75
2024/01/09 12:40:36;;;;;;;2.13;1.10;;;;;;;;;;4958335;28;20041;-74
2024/01/09 12:43:10;;;;;;;2.58;1.23;;;;;;;;;;4973280;28;20157;-77
2024/01/09 12:45:37;;;;;;;3.65;1.08;;;;;;;;;;4994658;28;20045;-76
2024/01/09 12:48:05;;;;;;;2.85;1.20;;;;;;;;;;4996828;28;20049;-76
2024/01/09 12:50:30;;;;;;;1.88;1.00;;;;;;;;;;4995743;28;20045;-76
2024/01/09 12:52:56;;;;;;;2.13;1.42;;;;;;;;;;4981807;28;20037;-78
2024/01/09 12:55:24;;;;;;;2.28;1.40;;;;;;;;;;4985389;28;20103;-77
2024/01/09 12:57:50;;;;;;;2.78;1.15;;;;;;;;;;5004984;28;20125;-74
2024/01/09 13:00:15;;;;;;;2.75;1.40;;;;;;;;;;4979142;28;20554;-77
2024/01/09 13:02:42;;;;;;;1.95;1.10;;;;;;;;;;4976431;28;20054;-77
2024/01/09 13:05:08;;;;;;;2.00;1.15;;;;;;;;;;4992106;28;20649;-77
2024/01/09 13:07:34;;;;;;;2.03;1.13;;;;;;;;;;4981908;28;20094;-76
2024/01/09 13:10:00;;;;;;;2.17;1.30;;;;;;;;;;5004436;28;20041;-76
2024/01/09 13:12:26;;;;;;;2.17;1.27;;;;;;;;;;4987809;28;20071;-75
2024/01/09 13:14:52;;;;;;;1.40;0.88;;;;;;;;;;4990250;28;20151;-76
2024/01/09 13:17:19;;;;;;;2.00;1.30;;;;;;;;;;5001936;28;20038;-75
2024/01/09 13:19:45;;;;;;;2.92;1.15;;;;;;;;;;4992160;28;20128;-75
2024/01/09 13:22:11;;;;;;;1.50;1.00;;;;;;;;;;4974696;28;20044;-75
2024/01/09 13:24:36;;;;;;;2.50;1.20;;;;;;;;;;4978170;28;20136;-76
2024/01/09 13:27:03;;;;;;;2.58;1.40;;;;;;;;;;4979393;28;20041;-74
2024/01/09 13:29:29;;;;;;;2.03;1.10;;;;;;;;;;4989082;28;20092;-74
2024/01/09 13:31:54;;;;;;;2.45;1.33;;;;;;;;;;5006499;28;20037;-75
2024/01/09 13:34:19;;;;;;;1.92;1.20;;;;;;;;;;5009017;28;20126;-75
2024/01/09 13:36:45;;;;;;;2.92;1.35;;;;;;;;;;4981565;28;20084;-74
2024/01/09 13:39:14;;;;;;;2.10;1.00;;;;;;;;;;5004880;28;20080;-75
2024/01/09 13:41:40;;;;;;;1.57;0.93;;;;;;;;;;4985603;28;20045;-75
2024/01/09 13:44:05;;;;;;;1.75;1.02;;;;;;;;;;5006947;28;20068;-75
2024/01/09 13:46:30;;;;;;;1.77;0.90;;;;;;;;;;4985795;28;20802;-74
2024/01/09 13:48:56;;;;;;;2.00;1.17;;;;;;;;;;4980592;28;20554;-75
2024/01/09 13:51:22;;;;;;;1.65;1.05;;;;;;;;;;4988720;28;20494;-74
2024/01/09 13:53:51;;;;;;;2.17;1.10;;;;;;;;;;4986194;28;20879;-74
2024/01/09 13:56:17;;;;;;;2.40;1.13;;;;;;;;;;5008871;28;20028;-75
2024/01/09 13:58:42;;;;;;;2.20;1.00;;;;;;;;;;5004972;28;20021;-74
2024/01/09 14:01:07;;;;;;;1.40;1.00;;;;;;;;;;4991005;28;20029;-74
2024/01/09 14:03:33;;;;;;;2.15;1.05;;;;;;;;;;4991665;28;20490;-75
2024/01/09 14:05:58;;;;;;;1.52;1.10;;;;;;;;;;5001964;28;20022;-74
2024/01/09 14:08:24;;;;;;;1.88;1.10;;;;;;;;;;5005752;28;20030;-76
2024/01/09 14:10:49;;;;;;;1.83;1.15;;;;;;;;;;4983577;28;21382;-75
2024/01/09 14:13:15;;;;;;;2.08;1.30;;;;;;;;;;5011931;28;20791;-77
2024/01/09 14:15:41;;;;;;;1.35;0.80;;;;;;;;;;5016733;28;20032;-77
2024/01/09 14:18:07;;;;;;;1.92;1.08;;;;;;;;;;5004563;28;20029;-77
2024/01/09 14:20:32;;;;;;;2.17;1.10;;;;;;;;;;5009041;28;20025;-76
2024/01/09 14:23:00;;;;;;;2.45;1.30;;;;;;;;;;5007319;28;20040;-76
2024/01/09 14:25:26;;;;;;;2.15;1.40;;;;;;;;;;5002047;28;20112;-78
2024/01/09 14:27:52;;;;;;;1.60;1.00;;;;;;;;;;4984529;28;20033;-76
2024/01/09 14:30:18;;;;;;;1.63;1.20;;;;;;;;;;4989119;28;20101;-78
2024/01/09 14:32:44;;;;;;;1.98;1.10;;;;;;;;;;4992155;28;20045;-75
2024/01/09 14:35:09;;;;;;;1.38;0.88;;;;;;;;;;4970627;28;20045;-76
2024/01/09 14:37:35;;;;;;;1.90;1.17;;;;;;;;;;4963851;28;20087;-75
2024/01/09 14:40:00;;;;;;;2.00;1.00;;;;;;;;;;4978811;28;20038;-75
2024/01/09 14:42:25;;;;;;;2.03;0.98;;;;;;;;;;4989717;28;20065;-75
2024/01/09 14:44:54;;;;;;;1.30;0.80;;;;;;;;;;5002958;28;20152;-74
2024/01/09 14:47:20;;;;;;;1.45;0.93;;;;;;;;;;5003651;28;20045;-74
2024/01/09 14:49:46;;;;;;;1.80;1.10;;;;;;;;;;4977713;28;20052;-74
2024/01/09 14:52:11;;;;;;;1.50;0.95;;;;;;;;;;5003819;28;20065;-74
2024/01/09 14:54:37;;;;;;;1.60;1.00;;;;;;;;;;5004609;28;20036;-74
2024/01/09 14:57:02;;;;;;;1.40;1.00;;;;;;;;;;5002939;28;20757;-74
2024/01/09 14:59:28;;;;;;;2.40;1.48;;;;;;;;;;5002852;28;20757;-73
2024/01/09 15:01:53;;;;;;;2.00;0.95;;;;;;;;;;5003428;28;20535;-74
2024/01/09 15:04:19;;;;;;;2.00;1.10;;;;;;;;;;4983278;28;20045;-75